createdAt,value
2023-03-06T00:00:00.195Z,990.8
2023-03-06T00:01:17.167Z,990.8
2023-03-06T00:02:34.192Z,990.7
2023-03-06T00:03:51.289Z,990.7
2023-03-06T00:05:08.180Z,990.8
2023-03-06T00:06:25.177Z,990.7
2023-03-06T00:07:42.164Z,990.7
2023-03-06T00:08:59.170Z,990.7
2023-03-06T00:10:16.272Z,990.7
2023-03-06T00:11:33.177Z,990.8
2023-03-06T00:12:50.186Z,990.7
2023-03-06T00:14:07.193Z,990.7
2023-03-06T00:15:24.342Z,990.7
2023-03-06T00:16:41.195Z,990.7
2023-03-06T00:17:58.214Z,990.7
2023-03-06T00:19:15.172Z,990.7
2023-03-06T00:20:32.223Z,990.7
2023-03-06T00:21:49.181Z,990.7
2023-03-06T00:23:06.205Z,990.7
2023-03-06T00:24:23.227Z,990.7
2023-03-06T00:25:40.218Z,990.7
2023-03-06T00:26:57.198Z,990.7
2023-03-06T00:28:14.224Z,990.7
2023-03-06T00:29:31.195Z,990.7
2023-03-06T00:30:48.283Z,990.7
2023-03-06T00:32:05.272Z,990.7
2023-03-06T00:33:22.209Z,990.7
2023-03-06T00:34:39.231Z,990.7
2023-03-06T00:35:56.243Z,990.7
2023-03-06T00:37:13.305Z,990.7
2023-03-06T00:38:30.201Z,990.6
2023-03-06T00:39:47.225Z,990.6
2023-03-06T00:41:04.210Z,990.6
2023-03-06T00:42:21.256Z,990.6
2023-03-06T00:43:38.219Z,990.6
2023-03-06T00:44:55.318Z,990.6
2023-03-06T00:46:12.321Z,990.6
2023-03-06T00:47:29.234Z,990.6
2023-03-06T00:48:46.234Z,990.6
2023-03-06T00:50:03.262Z,990.6
2023-03-06T00:51:20.255Z,990.6
2023-03-06T00:52:37.274Z,990.6
2023-03-06T00:53:54.260Z,990.5
2023-03-06T00:55:11.224Z,990.5
2023-03-06T00:56:28.285Z,990.6
2023-03-06T00:57:45.308Z,990.5
2023-03-06T00:59:02.304Z,990.5
2023-03-06T01:00:19.255Z,990.5
2023-03-06T01:01:36.346Z,990.5
2023-03-06T01:02:53.240Z,990.5
2023-03-06T01:04:10.239Z,990.5
2023-03-06T01:05:27.311Z,990.4
2023-03-06T01:06:44.267Z,990.4
2023-03-06T01:08:01.351Z,990.4
2023-03-06T01:09:18.285Z,990.4
2023-03-06T01:10:35.336Z,990.3
2023-03-06T01:11:52.332Z,990.3
2023-03-06T01:13:09.248Z,990.3
2023-03-06T01:14:26.369Z,990.3
2023-03-06T01:15:43.253Z,990.2
2023-03-06T01:17:00.313Z,990.3
2023-03-06T01:18:17.275Z,990.2
2023-03-06T01:19:34.268Z,990.2
2023-03-06T01:20:51.294Z,990.2
2023-03-06T01:22:08.248Z,990.2
2023-03-06T01:23:25.260Z,990.2
2023-03-06T01:24:42.258Z,990.2
2023-03-06T01:25:59.293Z,990.1
2023-03-06T01:27:16.523Z,990.1
2023-03-06T01:28:33.308Z,990.1
2023-03-06T01:29:50.276Z,990.1
2023-03-06T01:31:07.609Z,990.1
2023-03-06T01:32:24.363Z,990.1
2023-03-06T01:33:41.298Z,990.1
2023-03-06T01:34:58.287Z,990
2023-03-06T01:36:15.296Z,990
2023-03-06T01:37:32.275Z,990
2023-03-06T01:38:49.271Z,990
2023-03-06T01:40:06.296Z,990
2023-03-06T01:41:23.296Z,990
2023-03-06T01:42:40.335Z,989.9
2023-03-06T01:43:57.300Z,989.9
2023-03-06T01:45:14.305Z,989.9
2023-03-06T01:46:31.345Z,989.8
2023-03-06T01:47:48.356Z,989.8
2023-03-06T01:49:05.323Z,989.8
2023-03-06T01:50:22.298Z,989.8
2023-03-06T01:51:39.534Z,989.8
2023-03-06T01:52:56.301Z,989.8
2023-03-06T01:54:13.328Z,989.8
2023-03-06T01:55:30.317Z,989.8
2023-03-06T01:56:47.336Z,989.8
2023-03-06T01:58:04.332Z,989.8
2023-03-06T01:59:21.299Z,989.8
2023-03-06T02:00:38.304Z,989.8
2023-03-06T02:01:55.465Z,989.8
2023-03-06T02:03:12.410Z,989.8
2023-03-06T02:04:29.316Z,989.8
2023-03-06T02:05:46.314Z,989.8
2023-03-06T02:07:03.339Z,989.8
2023-03-06T02:08:20.320Z,989.9
2023-03-06T02:09:37.325Z,989.9
2023-03-06T02:10:54.318Z,989.9
2023-03-06T02:12:11.375Z,989.8
2023-03-06T02:13:28.324Z,989.8
2023-03-06T02:14:45.332Z,989.8
2023-03-06T02:16:02.386Z,989.7
2023-03-06T02:17:19.325Z,989.7
2023-03-06T02:18:36.367Z,989.6
2023-03-06T02:19:53.328Z,989.6
2023-03-06T02:21:10.373Z,989.6
2023-03-06T02:22:27.333Z,989.6
2023-03-06T02:23:44.336Z,989.6
2023-03-06T02:25:01.397Z,989.6
2023-03-06T02:26:18.341Z,989.6
2023-03-06T02:27:35.441Z,989.6
2023-03-06T02:28:52.347Z,989.6
2023-03-06T02:30:09.445Z,989.5
2023-03-06T02:31:26.363Z,989.5
2023-03-06T02:32:43.408Z,989.5
2023-03-06T02:34:00.407Z,989.5
2023-03-06T02:35:17.419Z,989.5
2023-03-06T02:36:35.123Z,989.5
2023-03-06T02:37:52.410Z,989.4
2023-03-06T02:39:09.376Z,989.4
2023-03-06T02:40:26.464Z,989.4
2023-03-06T02:41:43.368Z,989.4
2023-03-06T02:43:00.398Z,989.4
2023-03-06T02:44:17.407Z,989.4
2023-03-06T02:45:35.177Z,989.4
2023-03-06T02:46:52.420Z,989.4
2023-03-06T02:48:09.452Z,989.3
2023-03-06T02:49:26.653Z,989.3
2023-03-06T02:50:43.429Z,989.2
2023-03-06T02:52:00.372Z,989.3
2023-03-06T02:53:17.462Z,989.3
2023-03-06T02:54:34.376Z,989.3
2023-03-06T02:55:51.462Z,989.2
2023-03-06T02:57:08.410Z,989.2
2023-03-06T02:58:26.144Z,989.2
2023-03-06T02:59:43.757Z,989.2
2023-03-06T03:01:00.498Z,989.1
2023-03-06T03:02:17.430Z,989.1
2023-03-06T03:03:34.429Z,989.1
2023-03-06T03:04:51.471Z,989
2023-03-06T03:06:08.412Z,989
2023-03-06T03:07:25.440Z,989
2023-03-06T03:08:42.394Z,989
2023-03-06T03:09:59.377Z,989
2023-03-06T03:11:16.399Z,989
2023-03-06T03:12:33.494Z,989
2023-03-06T03:13:50.441Z,989
2023-03-06T03:15:07.385Z,989
2023-03-06T03:16:24.403Z,989
2023-03-06T03:17:41.658Z,989
2023-03-06T03:18:58.623Z,989
2023-03-06T03:20:15.483Z,989
2023-03-06T03:21:32.393Z,988.9
2023-03-06T03:22:49.433Z,988.9
2023-03-06T03:24:06.414Z,988.9
2023-03-06T03:25:23.439Z,988.9
2023-03-06T03:26:40.445Z,988.9
2023-03-06T03:27:57.448Z,988.9
2023-03-06T03:29:14.440Z,988.9
2023-03-06T03:30:31.428Z,988.9
2023-03-06T03:31:48.441Z,988.9
2023-03-06T03:33:05.428Z,988.9
2023-03-06T03:34:22.430Z,988.8
2023-03-06T03:35:39.491Z,988.8
2023-03-06T03:36:57.170Z,988.8
2023-03-06T03:38:14.452Z,988.7
2023-03-06T03:39:31.531Z,988.7
2023-03-06T03:40:48.448Z,988.7
2023-03-06T03:42:05.437Z,988.7
2023-03-06T03:43:22.464Z,988.7
2023-03-06T03:44:39.431Z,988.7
2023-03-06T03:45:56.482Z,988.7
2023-03-06T03:47:13.450Z,988.7
2023-03-06T03:48:30.497Z,988.6
2023-03-06T03:49:48.007Z,988.6
2023-03-06T03:51:04.468Z,988.6
2023-03-06T03:52:21.445Z,988.6
2023-03-06T03:53:38.501Z,988.6
2023-03-06T03:54:55.447Z,988.6
2023-03-06T03:56:12.455Z,988.6
2023-03-06T03:57:29.464Z,988.6
2023-03-06T03:58:46.502Z,988.6
2023-03-06T04:00:03.482Z,988.6
2023-03-06T04:01:20.453Z,988.6
2023-03-06T04:02:37.517Z,988.5
2023-03-06T04:03:54.542Z,988.5
2023-03-06T04:05:11.561Z,988.5
2023-03-06T04:06:28.490Z,988.5
2023-03-06T04:07:45.480Z,988.5
2023-03-06T04:09:02.543Z,988.5
2023-03-06T04:10:19.487Z,988.5
2023-03-06T04:11:36.472Z,988.5
2023-03-06T04:12:53.471Z,988.4
2023-03-06T04:14:10.512Z,988.4
2023-03-06T04:15:27.496Z,988.3
2023-03-06T04:16:44.480Z,988.4
2023-03-06T04:18:01.470Z,988.4
2023-03-06T04:19:18.537Z,988.4
2023-03-06T04:20:35.467Z,988.3
2023-03-06T04:21:52.497Z,988.3
2023-03-06T04:23:09.469Z,988.3
2023-03-06T04:24:26.544Z,988.3
2023-03-06T04:25:43.493Z,988.3
2023-03-06T04:27:01.258Z,988.2
2023-03-06T04:28:18.550Z,988.2
2023-03-06T04:29:35.529Z,988.2
2023-03-06T04:30:52.509Z,988.2
2023-03-06T04:32:09.504Z,988.3
2023-03-06T04:33:26.603Z,988.3
2023-03-06T04:34:43.515Z,988.2
2023-03-06T04:36:00.497Z,988.2
2023-03-06T04:37:17.542Z,988.2
2023-03-06T04:38:34.572Z,988.2
2023-03-06T04:39:51.539Z,988.2
2023-03-06T04:41:08.492Z,988.2
2023-03-06T04:42:25.519Z,988.2
2023-03-06T04:43:42.534Z,988.1
2023-03-06T04:44:59.513Z,988.1
2023-03-06T04:46:16.541Z,988
2023-03-06T04:47:33.525Z,988
2023-03-06T04:48:50.549Z,988
2023-03-06T04:50:07.529Z,988.1
2023-03-06T04:51:24.591Z,988
2023-03-06T04:52:41.535Z,988.1
2023-03-06T04:53:58.572Z,988.1
2023-03-06T04:55:15.774Z,988
2023-03-06T04:56:32.533Z,988
2023-03-06T04:57:49.528Z,988
2023-03-06T04:59:06.567Z,988
2023-03-06T05:00:23.523Z,988.1
2023-03-06T05:01:40.535Z,988
2023-03-06T05:02:57.556Z,988
2023-03-06T05:04:14.577Z,988.1
2023-03-06T05:05:31.540Z,988.1
2023-03-06T05:06:48.538Z,988
2023-03-06T05:08:05.561Z,988
2023-03-06T05:09:22.699Z,988
2023-03-06T05:10:39.953Z,988
2023-03-06T05:11:56.567Z,988
2023-03-06T05:13:13.581Z,988.1
2023-03-06T05:14:30.582Z,988
2023-03-06T05:15:47.651Z,988
2023-03-06T05:17:04.589Z,988
2023-03-06T05:18:21.544Z,988
2023-03-06T05:19:38.553Z,988
2023-03-06T05:20:55.587Z,988
2023-03-06T05:22:12.540Z,987.9
2023-03-06T05:23:29.624Z,988
2023-03-06T05:24:46.582Z,987.9
2023-03-06T05:26:03.544Z,988
2023-03-06T05:27:20.615Z,988
2023-03-06T05:28:37.560Z,987.9
2023-03-06T05:29:54.593Z,987.9
2023-03-06T05:31:11.585Z,987.9
2023-03-06T05:32:28.652Z,987.9
2023-03-06T05:33:45.568Z,987.9
2023-03-06T05:35:02.611Z,988
2023-03-06T05:36:19.646Z,988
2023-03-06T05:37:36.638Z,988
2023-03-06T05:38:54.505Z,988
2023-03-06T05:40:10.574Z,988
2023-03-06T05:41:27.577Z,988
2023-03-06T05:42:44.594Z,988
2023-03-06T05:44:01.626Z,988
2023-03-06T05:45:18.597Z,988
2023-03-06T05:46:35.627Z,987.9
2023-03-06T05:47:52.597Z,988
2023-03-06T05:49:09.621Z,988
2023-03-06T05:50:26.611Z,988
2023-03-06T05:51:43.618Z,987.9
2023-03-06T05:53:00.588Z,988
2023-03-06T05:54:17.705Z,988
2023-03-06T05:55:35.310Z,988
2023-03-06T05:56:52.604Z,987.9
2023-03-06T05:58:09.601Z,987.9
2023-03-06T05:59:26.603Z,987.9
2023-03-06T06:00:43.926Z,987.9
2023-03-06T06:02:00.694Z,987.8
2023-03-06T06:03:17.633Z,987.9
2023-03-06T06:04:34.616Z,987.9
2023-03-06T06:05:51.788Z,987.9
2023-03-06T06:07:08.607Z,987.9
2023-03-06T06:08:25.630Z,987.9
2023-03-06T06:09:42.648Z,988
2023-03-06T06:10:59.644Z,988
2023-03-06T06:12:16.629Z,987.9
2023-03-06T06:13:33.634Z,987.9
2023-03-06T06:14:50.659Z,988
2023-03-06T06:16:07.737Z,987.9
2023-03-06T06:17:24.649Z,988
2023-03-06T06:18:41.698Z,987.9
2023-03-06T06:19:58.684Z,987.9
2023-03-06T06:21:15.621Z,987.9
2023-03-06T06:22:32.632Z,987.9
2023-03-06T06:23:49.633Z,988
2023-03-06T06:25:06.696Z,988
2023-03-06T06:26:23.630Z,988
2023-03-06T06:27:40.630Z,988
2023-03-06T06:28:59.768Z,988
2023-03-06T06:30:14.868Z,988
2023-03-06T06:31:31.666Z,988
2023-03-06T06:32:48.649Z,988
2023-03-06T06:34:05.661Z,988
2023-03-06T06:35:22.754Z,988.1
2023-03-06T06:36:39.653Z,988.1
2023-03-06T06:37:56.649Z,988.1
2023-03-06T06:39:13.652Z,988.1
2023-03-06T06:40:30.720Z,988
2023-03-06T06:41:59.689Z,988.1
2023-03-06T06:43:04.691Z,988.1
2023-03-06T06:44:21.694Z,988.1
2023-03-06T06:45:38.666Z,988.1
2023-03-06T06:48:12.702Z,988.1
2023-03-06T06:49:29.705Z,988.1
2023-03-06T06:50:46.680Z,988.1
2023-03-06T06:52:03.743Z,988.1
2023-03-06T06:53:20.680Z,988.1
2023-03-06T06:54:37.699Z,988.1
2023-03-06T06:55:54.701Z,988.1
2023-03-06T06:57:11.736Z,988.1
2023-03-06T06:58:28.804Z,988.1
2023-03-06T06:59:45.812Z,988.1
2023-03-06T07:01:02.682Z,988.1
2023-03-06T07:02:19.836Z,988.1
2023-03-06T07:03:36.751Z,988.1
2023-03-06T07:05:03.408Z,988.1
2023-03-06T07:06:10.676Z,988.1
2023-03-06T07:07:27.727Z,988.2
2023-03-06T07:08:44.685Z,988.1
2023-03-06T07:10:01.737Z,988.1
2023-03-06T07:11:18.717Z,988.2
2023-03-06T07:12:35.732Z,988.2
2023-03-06T07:13:52.682Z,988.1
2023-03-06T07:15:09.746Z,988.1
2023-03-06T07:16:26.700Z,988.1
2023-03-06T07:17:43.833Z,988.1
2023-03-06T07:19:00.786Z,988.1
2023-03-06T07:20:17.752Z,988.1
2023-03-06T07:21:34.732Z,988.1
2023-03-06T07:22:52.043Z,988.1
2023-03-06T07:24:08.700Z,988.1
2023-03-06T07:25:25.724Z,988.1
2023-03-06T07:26:42.759Z,988.1
2023-03-06T07:27:59.971Z,988.2
2023-03-06T07:29:16.720Z,988.1
2023-03-06T07:30:33.849Z,988.2
2023-03-06T07:31:50.704Z,988.2
2023-03-06T07:33:07.729Z,988.2
2023-03-06T07:34:24.746Z,988.2
2023-03-06T07:35:41.800Z,988.2
2023-03-06T07:36:58.779Z,988.2
2023-03-06T07:38:15.756Z,988.2
2023-03-06T07:39:32.807Z,988.2
2023-03-06T07:40:50.365Z,988.2
2023-03-06T07:42:06.779Z,988.2
2023-03-06T07:43:23.774Z,988.2
2023-03-06T07:44:40.799Z,988.2
2023-03-06T07:45:57.807Z,988.2
2023-03-06T07:47:14.734Z,988.2
2023-03-06T07:48:31.754Z,988.3
2023-03-06T07:49:48.751Z,988.2
2023-03-06T07:51:05.817Z,988.2
2023-03-06T07:52:22.785Z,988.2
2023-03-06T07:53:39.761Z,988.3
2023-03-06T07:54:56.766Z,988.3
2023-03-06T07:56:13.839Z,988.3
2023-03-06T07:57:30.807Z,988.3
2023-03-06T07:58:47.818Z,988.3
2023-03-06T08:00:04.788Z,988.3
2023-03-06T08:01:21.770Z,988.3
2023-03-06T08:02:38.897Z,988.3
2023-03-06T08:03:55.849Z,988.3
2023-03-06T08:05:12.839Z,988.3
2023-03-06T08:06:29.809Z,988.3
2023-03-06T08:07:46.791Z,988.3
2023-03-06T08:09:03.798Z,988.3
2023-03-06T08:10:20.808Z,988.3
2023-03-06T08:11:37.802Z,988.2
2023-03-06T08:12:54.865Z,988.3
2023-03-06T08:14:11.763Z,988.3
2023-03-06T08:15:28.844Z,988.3
2023-03-06T08:16:45.846Z,988.3
2023-03-06T08:18:02.817Z,988.3
2023-03-06T08:19:19.840Z,988.3
2023-03-06T08:20:36.788Z,988.3
2023-03-06T08:21:53.780Z,988.3
2023-03-06T08:23:11.244Z,988.3
2023-03-06T08:24:27.786Z,988.3
2023-03-06T08:25:44.864Z,988.2
2023-03-06T08:27:04.530Z,988.3
2023-03-06T08:28:21.938Z,988.2
2023-03-06T08:29:38.997Z,988.3
2023-03-06T08:30:55.816Z,988.3
2023-03-06T08:32:12.810Z,988.2
2023-03-06T08:33:29.826Z,988.2
2023-03-06T08:34:47.156Z,988.2
2023-03-06T08:36:03.859Z,988.3
2023-03-06T08:37:21.028Z,988.3
2023-03-06T08:38:38.124Z,988.3
2023-03-06T08:39:54.821Z,988.3
2023-03-06T08:41:11.838Z,988.3
2023-03-06T08:42:28.932Z,988.3
2023-03-06T08:43:45.889Z,988.3
2023-03-06T08:45:02.829Z,988.3
2023-03-06T08:46:19.854Z,988.3
2023-03-06T08:47:37.065Z,988.3
2023-03-06T08:48:53.851Z,988.3
2023-03-06T08:50:10.842Z,988.3
2023-03-06T08:51:28.402Z,988.4
2023-03-06T08:52:45.856Z,988.3
2023-03-06T08:54:02.839Z,988.4
2023-03-06T08:55:19.877Z,988.3
2023-03-06T08:56:36.820Z,988.4
2023-03-06T08:57:53.842Z,988.4
2023-03-06T08:59:10.914Z,988.4
2023-03-06T09:00:29.220Z,988.4
2023-03-06T09:01:47.916Z,988.4
2023-03-06T09:03:04.874Z,988.4
2023-03-06T09:04:21.841Z,988.4
2023-03-06T09:05:38.850Z,988.4
2023-03-06T09:06:55.854Z,988.4
2023-03-06T09:08:12.890Z,988.4
2023-03-06T09:09:29.864Z,988.4
2023-03-06T09:10:46.932Z,988.4
2023-03-06T09:12:03.878Z,988.4
2023-03-06T09:13:20.926Z,988.4
2023-03-06T09:14:37.883Z,988.4
2023-03-06T09:15:54.929Z,988.3
2023-03-06T09:17:11.875Z,988.3
2023-03-06T09:18:28.884Z,988.3
2023-03-06T09:19:45.958Z,988.3
2023-03-06T09:21:02.918Z,988.3
2023-03-06T09:22:19.861Z,988.3
2023-03-06T09:23:36.909Z,988.3
2023-03-06T09:24:53.887Z,988.3
2023-03-06T09:26:10.948Z,988.3
2023-03-06T09:27:27.888Z,988.3
2023-03-06T09:28:44.896Z,988.3
2023-03-06T09:30:02.003Z,988.3
2023-03-06T09:31:19.083Z,988.3
2023-03-06T09:32:35.998Z,988.3
2023-03-06T09:33:52.916Z,988.3
2023-03-06T09:35:09.887Z,988.3
2023-03-06T09:36:26.890Z,988.3
2023-03-06T09:37:43.901Z,988.3
2023-03-06T09:39:00.933Z,988.4
2023-03-06T09:40:17.881Z,988.4
2023-03-06T09:41:34.892Z,988.3
2023-03-06T09:42:51.902Z,988.3
2023-03-06T09:44:08.966Z,988.3
2023-03-06T09:45:25.939Z,988.3
2023-03-06T09:46:42.892Z,988.3
2023-03-06T09:47:59.885Z,988.3
2023-03-06T09:49:17.037Z,988.3
2023-03-06T09:50:33.946Z,988.3
2023-03-06T09:51:50.916Z,988.3
2023-03-06T09:53:07.911Z,988.3
2023-03-06T09:54:24.955Z,988.3
2023-03-06T09:55:42.004Z,988.3
2023-03-06T09:56:58.949Z,988.3
2023-03-06T09:58:15.952Z,988.3
2023-03-06T09:59:33.057Z,988.3
2023-03-06T10:00:49.985Z,988.3
2023-03-06T10:02:07.007Z,988.3
2023-03-06T10:03:23.962Z,988.3
2023-03-06T10:04:40.971Z,988.3
2023-03-06T10:05:57.978Z,988.2
2023-03-06T10:07:15.305Z,988.2
2023-03-06T10:08:31.946Z,988.2
2023-03-06T10:09:49.007Z,988.2
2023-03-06T10:11:05.972Z,988.3
2023-03-06T10:12:24.721Z,988.2
2023-03-06T10:13:39.946Z,988.3
2023-03-06T10:14:56.955Z,988.3
2023-03-06T10:16:14.050Z,988.2
2023-03-06T10:17:30.993Z,988.2
2023-03-06T10:18:48.011Z,988.2
2023-03-06T10:20:04.955Z,988.2
2023-03-06T10:21:21.950Z,988.2
2023-03-06T10:22:39.014Z,988.2
2023-03-06T10:23:55.967Z,988.2
2023-03-06T10:25:12.960Z,988.2
2023-03-06T10:26:30.040Z,988.1
2023-03-06T10:27:46.996Z,988.2
2023-03-06T10:29:04.579Z,988.1
2023-03-06T10:30:22.151Z,988.1
2023-03-06T10:31:38.973Z,988.2
2023-03-06T10:32:56.069Z,988.2
2023-03-06T10:34:13.018Z,988.1
2023-03-06T10:35:30.850Z,988.1
2023-03-06T10:36:47.040Z,988.1
2023-03-06T10:38:03.992Z,988.1
2023-03-06T10:39:21.027Z,988.1
2023-03-06T10:40:38.016Z,988.1
2023-03-06T10:41:54.996Z,988.1
2023-03-06T10:43:12.440Z,988
2023-03-06T10:44:28.964Z,988
2023-03-06T10:45:49.130Z,987.9
2023-03-06T10:47:03.026Z,987.9
2023-03-06T10:48:19.991Z,987.9
2023-03-06T10:49:36.999Z,987.9
2023-03-06T10:50:53.995Z,987.9
2023-03-06T10:52:11.002Z,987.9
2023-03-06T10:53:28.002Z,987.9
2023-03-06T10:54:45.019Z,987.9
2023-03-06T10:56:02.020Z,987.8
2023-03-06T10:57:19.022Z,987.8
2023-03-06T10:58:36.089Z,987.7
2023-03-06T10:59:53.016Z,987.7
2023-03-06T11:01:10.008Z,987.8
2023-03-06T11:02:27.030Z,987.7
2023-03-06T11:03:44.080Z,987.7
2023-03-06T11:05:01.062Z,987.7
2023-03-06T11:06:18.007Z,987.7
2023-03-06T11:07:35.054Z,987.7
2023-03-06T11:08:52.016Z,987.7
2023-03-06T11:10:09.040Z,987.7
2023-03-06T11:11:37.016Z,987.7
2023-03-06T11:12:43.026Z,987.7
2023-03-06T11:14:00.039Z,987.7
2023-03-06T11:15:17.003Z,987.6
2023-03-06T11:16:34.077Z,987.6
2023-03-06T11:17:51.196Z,987.7
2023-03-06T11:19:08.043Z,987.7
2023-03-06T11:20:25.043Z,987.6
2023-03-06T11:21:42.015Z,987.6
2023-03-06T11:22:59.587Z,987.7
2023-03-06T11:24:16.060Z,987.6
2023-03-06T11:25:33.067Z,987.6
2023-03-06T11:26:51.091Z,987.6
2023-03-06T11:28:07.099Z,987.6
2023-03-06T11:29:24.129Z,987.6
2023-03-06T11:30:41.027Z,987.6
2023-03-06T11:31:58.022Z,987.6
2023-03-06T11:33:15.122Z,987.6
2023-03-06T11:34:32.066Z,987.6
2023-03-06T11:35:49.061Z,987.6
2023-03-06T11:37:06.049Z,987.6
2023-03-06T11:38:23.060Z,987.6
2023-03-06T11:39:40.116Z,987.5
2023-03-06T11:40:57.058Z,987.6
2023-03-06T11:42:14.094Z,987.6
2023-03-06T11:43:31.071Z,987.5
2023-03-06T11:44:48.071Z,987.5
2023-03-06T11:46:05.064Z,987.5
2023-03-06T11:47:22.041Z,987.6
2023-03-06T11:48:39.112Z,987.6
2023-03-06T11:49:56.150Z,987.5
2023-03-06T11:51:13.125Z,987.5
2023-03-06T11:52:30.052Z,987.4
2023-03-06T11:53:49.709Z,987.4
2023-03-06T11:55:07.078Z,987.4
2023-03-06T11:56:24.095Z,987.4
2023-03-06T11:57:41.072Z,987.5
2023-03-06T11:58:58.158Z,987.5
2023-03-06T12:00:15.089Z,987.5
2023-03-06T12:01:32.113Z,987.5
2023-03-06T12:02:49.064Z,987.4
2023-03-06T12:04:06.122Z,987.4
2023-03-06T12:05:23.241Z,987.4
2023-03-06T12:06:40.070Z,987.4
2023-03-06T12:07:57.070Z,987.4
2023-03-06T12:09:14.126Z,987.4
2023-03-06T12:10:31.091Z,987.4
2023-03-06T12:11:48.122Z,987.4
2023-03-06T12:13:05.098Z,987.4
2023-03-06T12:14:22.093Z,987.4
2023-03-06T12:15:39.105Z,987.4
2023-03-06T12:16:56.135Z,987.4
2023-03-06T12:18:13.379Z,987.3
2023-03-06T12:19:30.135Z,987.3
2023-03-06T12:20:47.101Z,987.3
2023-03-06T12:22:04.092Z,987.2
2023-03-06T12:23:21.131Z,987.2
2023-03-06T12:24:38.102Z,987.2
2023-03-06T12:25:55.155Z,987.2
2023-03-06T12:27:12.103Z,987.2
2023-03-06T12:28:29.162Z,987.2
2023-03-06T12:29:46.162Z,987.2
2023-03-06T12:31:03.148Z,987.1
2023-03-06T12:32:20.153Z,987.1
2023-03-06T12:33:37.149Z,987.1
2023-03-06T12:34:54.190Z,987.1
2023-03-06T12:36:11.131Z,987.1
2023-03-06T12:37:28.115Z,987.1
2023-03-06T12:38:45.156Z,987.1
2023-03-06T12:40:02.200Z,987.1
2023-03-06T12:41:19.118Z,987
2023-03-06T12:42:36.149Z,987
2023-03-06T12:43:53.185Z,987
2023-03-06T12:45:10.151Z,987
2023-03-06T12:46:27.168Z,987
2023-03-06T12:47:44.152Z,987
2023-03-06T12:49:01.150Z,987
2023-03-06T12:50:18.227Z,987
2023-03-06T12:51:35.176Z,987
2023-03-06T12:52:52.166Z,987
2023-03-06T12:54:09.152Z,987
2023-03-06T12:55:26.215Z,987
2023-03-06T12:56:43.166Z,987
2023-03-06T12:58:00.172Z,987
2023-03-06T12:59:17.142Z,987
2023-03-06T13:00:34.199Z,987
2023-03-06T13:01:51.223Z,987
2023-03-06T13:03:08.228Z,987.1
2023-03-06T13:04:25.166Z,987.1
2023-03-06T13:05:42.200Z,987.1
2023-03-06T13:06:59.155Z,987.1
2023-03-06T13:08:16.204Z,987.1
2023-03-06T13:09:33.179Z,987.1
2023-03-06T13:10:50.164Z,987.1
2023-03-06T13:12:07.178Z,987.1
2023-03-06T13:13:24.199Z,987.1
2023-03-06T13:14:48.565Z,987.1
2023-03-06T13:15:58.200Z,987.1
2023-03-06T13:17:15.191Z,987.1
2023-03-06T13:18:32.205Z,987.1
2023-03-06T13:19:49.215Z,987.1
2023-03-06T13:21:06.206Z,987
2023-03-06T13:22:23.197Z,987
2023-03-06T13:23:41.033Z,987.1
2023-03-06T13:25:03.596Z,987.1
2023-03-06T13:26:15.196Z,987
2023-03-06T13:27:32.188Z,987.1
2023-03-06T13:28:49.195Z,987
2023-03-06T13:30:06.278Z,987.1
2023-03-06T13:31:27.421Z,987.1
2023-03-06T13:32:40.321Z,987
2023-03-06T13:33:57.212Z,987
2023-03-06T13:35:14.264Z,987
2023-03-06T13:36:31.258Z,987
2023-03-06T13:37:48.199Z,987.1
2023-03-06T13:39:05.194Z,987.1
2023-03-06T13:40:22.236Z,987.1
2023-03-06T13:41:39.264Z,987.1
2023-03-06T13:42:56.260Z,987.1
2023-03-06T13:44:13.196Z,987.1
2023-03-06T13:45:30.594Z,987.1
2023-03-06T13:46:47.220Z,987.1
2023-03-06T13:48:30.140Z,987.1
2023-03-06T13:49:21.236Z,987.1
2023-03-06T13:50:38.275Z,987.1
2023-03-06T13:51:55.287Z,987.1
2023-03-06T13:53:12.488Z,987.1
2023-03-06T13:54:29.442Z,987.1
2023-03-06T13:55:46.349Z,987.1
2023-03-06T13:57:03.242Z,987.1
2023-03-06T13:58:20.247Z,987.1
2023-03-06T13:59:37.230Z,987.1
2023-03-06T14:00:54.278Z,987.1
2023-03-06T14:02:11.337Z,987.1
2023-03-06T14:03:28.277Z,987.1
2023-03-06T14:04:45.242Z,987.1
2023-03-06T14:06:02.255Z,987.1
2023-03-06T14:07:19.343Z,987.1
2023-03-06T14:08:36.235Z,987.1
2023-03-06T14:09:53.256Z,987.1
2023-03-06T14:11:10.265Z,987
2023-03-06T14:12:27.244Z,987
2023-03-06T14:13:47.284Z,987
2023-03-06T14:15:01.319Z,986.7
2023-03-06T14:16:19.065Z,986.8
2023-03-06T14:17:36.255Z,986.9
2023-03-06T14:18:53.257Z,987
2023-03-06T14:20:10.337Z,987
2023-03-06T14:21:27.318Z,987
2023-03-06T14:22:44.367Z,987
2023-03-06T14:24:01.263Z,987
2023-03-06T14:25:18.262Z,987
2023-03-06T14:26:35.297Z,986.9
2023-03-06T14:27:52.684Z,986.9
2023-03-06T14:29:09.276Z,986.9
2023-03-06T14:30:26.472Z,986.9
2023-03-06T14:31:43.337Z,986.9
2023-03-06T14:33:00.306Z,986.8
2023-03-06T14:34:17.309Z,986.8
2023-03-06T14:35:34.410Z,986.8
2023-03-06T14:36:51.285Z,986.8
2023-03-06T14:38:08.341Z,986.8
2023-03-06T14:39:25.271Z,986.8
2023-03-06T14:40:42.278Z,986.8
2023-03-06T14:41:59.337Z,986.6
2023-03-06T14:43:16.341Z,986.7
2023-03-06T14:44:33.290Z,986.7
2023-03-06T14:45:50.317Z,986.7
2023-03-06T14:47:07.293Z,986.6
2023-03-06T14:48:24.351Z,986.7
2023-03-06T14:49:41.341Z,986.6
2023-03-06T14:50:58.411Z,986.6
2023-03-06T14:52:15.309Z,986.6
2023-03-06T14:53:32.364Z,986.6
2023-03-06T14:54:49.345Z,986.6
2023-03-06T14:56:06.436Z,986.6
2023-03-06T14:57:23.304Z,986.6
2023-03-06T14:58:40.326Z,986.6
2023-03-06T14:59:57.321Z,986.5
2023-03-06T15:01:14.331Z,986.6
2023-03-06T15:02:31.400Z,986.5
2023-03-06T15:03:48.383Z,986.5
2023-03-06T15:05:05.348Z,986.5
2023-03-06T15:06:22.400Z,986.5
2023-03-06T15:07:39.307Z,986.5
2023-03-06T15:08:56.389Z,986.5
2023-03-06T15:10:13.337Z,986.6
2023-03-06T15:11:30.384Z,986.6
2023-03-06T15:12:47.311Z,986.5
2023-03-06T15:14:04.394Z,986.5
2023-03-06T15:15:21.312Z,986.5
2023-03-06T15:16:38.439Z,986.6
2023-03-06T15:17:55.374Z,986.6
2023-03-06T15:19:12.333Z,986.6
2023-03-06T15:20:29.342Z,986.6
2023-03-06T15:21:46.378Z,986.6
2023-03-06T15:23:03.387Z,986.6
2023-03-06T15:24:20.371Z,986.6
2023-03-06T15:25:37.354Z,986.6
2023-03-06T15:26:54.331Z,986.6
2023-03-06T15:28:11.383Z,986.6
2023-03-06T15:29:28.375Z,986.6
2023-03-06T15:30:45.435Z,986.6
2023-03-06T15:32:02.708Z,986.6
2023-03-06T15:33:19.412Z,986.6
2023-03-06T15:34:36.366Z,986.6
2023-03-06T15:35:53.393Z,986.6
2023-03-06T15:37:10.359Z,986.6
2023-03-06T15:38:27.421Z,986.6
2023-03-06T15:39:44.483Z,986.6
2023-03-06T15:41:01.343Z,986.6
2023-03-06T15:42:18.364Z,986.6
2023-03-06T15:43:35.416Z,986.6
2023-03-06T15:44:52.372Z,986.7
2023-03-06T15:46:09.502Z,986.7
2023-03-06T15:47:26.370Z,986.7
2023-03-06T15:48:43.411Z,986.7
2023-03-06T15:50:00.606Z,986.7
2023-03-06T15:51:17.561Z,986.7
2023-03-06T15:52:34.389Z,986.7
2023-03-06T15:53:53.021Z,986.7
2023-03-06T15:55:08.406Z,986.6
2023-03-06T15:56:25.406Z,986.7
2023-03-06T15:57:42.377Z,986.6
2023-03-06T15:58:59.388Z,986.5
2023-03-06T16:00:26.796Z,986.5
2023-03-06T16:01:36.169Z,986.5
2023-03-06T16:02:51.392Z,986.5
2023-03-06T16:04:08.425Z,986.6
2023-03-06T16:05:25.399Z,986.6
2023-03-06T16:06:42.437Z,986.6
2023-03-06T16:07:59.424Z,986.5
2023-03-06T16:09:16.401Z,986.5
2023-03-06T16:10:33.544Z,986.5
2023-03-06T16:11:50.405Z,986.5
2023-03-06T16:13:07.466Z,986.5
2023-03-06T16:14:24.456Z,986.5
2023-03-06T16:15:41.572Z,986.5
2023-03-06T16:16:58.500Z,986.5
2023-03-06T16:18:15.440Z,986.5
2023-03-06T16:19:32.414Z,986.5
2023-03-06T16:20:49.412Z,986.5
2023-03-06T16:22:06.455Z,986.5
2023-03-06T16:23:23.432Z,986.5
2023-03-06T16:24:40.463Z,986.5
2023-03-06T16:25:57.495Z,986.5
2023-03-06T16:27:14.436Z,986.5
2023-03-06T16:28:31.451Z,986.5
2023-03-06T16:29:48.449Z,986.5
2023-03-06T16:31:05.490Z,986.5
2023-03-06T16:32:22.514Z,986.5
2023-03-06T16:33:39.431Z,986.5
2023-03-06T16:34:56.420Z,986.5
2023-03-06T16:36:13.456Z,986.5
2023-03-06T16:37:30.441Z,986.5
2023-03-06T16:38:47.416Z,986.5
2023-03-06T16:40:04.474Z,986.5
2023-03-06T16:41:21.533Z,986.6